Black River (Missouri), Poplar Bluff (07063000)

StateMissouriLatestLow (807 cfs)
RiverBlack RiverRatingObservedEstimated
Updated2020-07-13 19:15 (39 minutes ago)Flood - The river is flooding. Obstacles can be treacherous or deadly. The river should be avoided at this stage for casual trips and definitely for the inexperienced. Trips should be attempted only with protective gear and equipment.Flood(none)4089
Discharge807 cfs (median: 625 cfs)High - The river is high and potentially dangerous, especially for the young and / or inexperienced. Normal stream obstacles are sometimes difficult to navigate. Extended distances can be attempted, but canoe travel may not be advisable.High(none)1897
Height1.36 feetGood - Conditions are ideal for a canoe or kayak. Boats typically will drag on fewer than one-quarter of riffles, if at all, and portages are unnecessary or rare. Normal float lengths can be attempted without a problem.Good(none)962
TrendRising (falling over 24 hours)Low - River is low but can still be floated. Some riffles are okay but most come with significant dragging and might need a portage. Float lengths should be reduced to accommodate low flow, dragging, and portages.Low(none)636
USGSExternal icon USGS Site (External icon Google Maps)Poor - River is too low to float comfortably. Most or all riffles will drag or must be portaged and some obstacles (such as slick shelf rock) cause undue problems. Avoid the river at this stage for casual paddling trips.Poor(none)338

Trending Data

Plot Image

Trips for Black River (Missouri), Poplar Bluff (07063000)

DateStartEndDistanceConditionDischargeHeightFishingDetails

A total of 0 rows are displayed.

Condition Descriptions

Fishing Conditions

Fish Species

Notes

Classic Trip List

The classic River Trips application is still available for use. It is updated with the new system using a data retrofit. It is no longer maintained. The original River Trips application is no longer updated (as of 1 Dec 2016) but can be checked for errors or for the condition of the data before it was converted to the new system.

Gauge Data Table

ObservationHeightDischargeMaximum
Discharge
Minimum
Discharge
Mean
Discharge
P05P10P20P25P50
(Median)
P75P80P90P95
2020-07-13 19:15 1.36 807 3850 (2015) 286 (1954) 981 333 382 411 424 625 986 1470 2180 3600
2020-07-13 18:15 1.34 800 3850 (2015) 286 (1954) 981 333 382 411 424 625 986 1470 2180 3600
2020-07-13 17:15 1.35 804 3850 (2015) 286 (1954) 981 333 382 411 424 625 986 1470 2180 3600
2020-07-13 16:15 1.35 804 3850 (2015) 286 (1954) 981 333 382 411 424 625 986 1470 2180 3600
2020-07-13 15:15 1.35 804 3850 (2015) 286 (1954) 981 333 382 411 424 625 986 1470 2180 3600
2020-07-13 14:15 1.34 800 3850 (2015) 286 (1954) 981 333 382 411 424 625 986 1470 2180 3600
2020-07-13 13:15 1.35 804 3850 (2015) 286 (1954) 981 333 382 411 424 625 986 1470 2180 3600
2020-07-13 12:15 1.35 804 3850 (2015) 286 (1954) 981 333 382 411 424 625 986 1470 2180 3600
2020-07-13 11:15 1.34 800 3850 (2015) 286 (1954) 981 333 382 411 424 625 986 1470 2180 3600
2020-07-13 10:15 1.35 804 3850 (2015) 286 (1954) 981 333 382 411 424 625 986 1470 2180 3600
2020-07-13 09:15 1.35 804 3850 (2015) 286 (1954) 981 333 382 411 424 625 986 1470 2180 3600
2020-07-13 08:15 1.35 804 3850 (2015) 286 (1954) 981 333 382 411 424 625 986 1470 2180 3600
2020-07-13 07:15 1.36 807 3850 (2015) 286 (1954) 981 333 382 411 424 625 986 1470 2180 3600
2020-07-13 06:15 1.37 810 3850 (2015) 286 (1954) 981 333 382 411 424 625 986 1470 2180 3600
2020-07-13 05:15 1.36 807 3850 (2015) 286 (1954) 981 333 382 411 424 625 986 1470 2180 3600
2020-07-13 04:15 1.35 804 3850 (2015) 286 (1954) 981 333 382 411 424 625 986 1470 2180 3600
2020-07-13 03:15 1.37 810 3850 (2015) 286 (1954) 981 333 382 411 424 625 986 1470 2180 3600
2020-07-13 02:15 1.37 810 3850 (2015) 286 (1954) 981 333 382 411 424 625 986 1470 2180 3600
2020-07-13 01:15 1.36 807 3850 (2015) 286 (1954) 981 333 382 411 424 625 986 1470 2180 3600
2020-07-13 00:15 1.38 814 3850 (2015) 286 (1954) 981 333 382 411 424 625 986 1470 2180 3600
2020-07-12 23:15 1.37 810 3680 (2017) 299 (2001) 1010 341 384 419 455 622 1160 1670 2350 3430
2020-07-12 22:15 1.38 814 3680 (2017) 299 (2001) 1010 341 384 419 455 622 1160 1670 2350 3430
2020-07-12 21:15 1.39 817 3680 (2017) 299 (2001) 1010 341 384 419 455 622 1160 1670 2350 3430
2020-07-12 20:15 1.38 814 3680 (2017) 299 (2001) 1010 341 384 419 455 622 1160 1670 2350 3430
2020-07-12 19:15 1.39 817 3680 (2017) 299 (2001) 1010 341 384 419 455 622 1160 1670 2350 3430
2020-07-12 18:15 1.39 817 3680 (2017) 299 (2001) 1010 341 384 419 455 622 1160 1670 2350 3430
2020-07-12 17:15 1.40 821 3680 (2017) 299 (2001) 1010 341 384 419 455 622 1160 1670 2350 3430
2020-07-12 16:15 1.40 821 3680 (2017) 299 (2001) 1010 341 384 419 455 622 1160 1670 2350 3430
2020-07-12 15:15 1.40 821 3680 (2017) 299 (2001) 1010 341 384 419 455 622 1160 1670 2350 3430
2020-07-12 14:15 1.40 821 3680 (2017) 299 (2001) 1010 341 384 419 455 622 1160 1670 2350 3430
2020-07-12 13:15 1.41 824 3680 (2017) 299 (2001) 1010 341 384 419 455 622 1160 1670 2350 3430
2020-07-12 12:15 1.42 827 3680 (2017) 299 (2001) 1010 341 384 419 455 622 1160 1670 2350 3430
2020-07-12 11:15 1.41 824 3680 (2017) 299 (2001) 1010 341 384 419 455 622 1160 1670 2350 3430
2020-07-12 10:15 1.42 827 3680 (2017) 299 (2001) 1010 341 384 419 455 622 1160 1670 2350 3430
2020-07-12 09:15 1.43 831 3680 (2017) 299 (2001) 1010 341 384 419 455 622 1160 1670 2350 3430
2020-07-12 08:15 1.42 827 3680 (2017) 299 (2001) 1010 341 384 419 455 622 1160 1670 2350 3430
2020-07-12 07:15 1.43 831 3680 (2017) 299 (2001) 1010 341 384 419 455 622 1160 1670 2350 3430
2020-07-12 06:15 1.43 831 3680 (2017) 299 (2001) 1010 341 384 419 455 622 1160 1670 2350 3430
2020-07-12 05:15 1.44 834 3680 (2017) 299 (2001) 1010 341 384 419 455 622 1160 1670 2350 3430
2020-07-12 04:15 1.44 834 3680 (2017) 299 (2001) 1010 341 384 419 455 622 1160 1670 2350 3430
2020-07-12 03:15 1.44 834 3680 (2017) 299 (2001) 1010 341 384 419 455 622 1160 1670 2350 3430
2020-07-12 02:15 1.44 834 3680 (2017) 299 (2001) 1010 341 384 419 455 622 1160 1670 2350 3430
2020-07-12 01:15 1.44 834 3680 (2017) 299 (2001) 1010 341 384 419 455 622 1160 1670 2350 3430
2020-07-12 00:15 1.46 841 3680 (2017) 299 (2001) 1010 341 384 419 455 622 1160 1670 2350 3430
2020-07-11 23:15 1.46 841 3830 (2002) 299 (2001) 1020 345 381 423 438 620 1150 1790 2270 3640
2020-07-11 22:15 1.46 841 3830 (2002) 299 (2001) 1020 345 381 423 438 620 1150 1790 2270 3640
2020-07-11 21:15 1.48 848 3830 (2002) 299 (2001) 1020 345 381 423 438 620 1150 1790 2270 3640
2020-07-11 20:15 1.48 848 3830 (2002) 299 (2001) 1020 345 381 423 438 620 1150 1790 2270 3640
2020-07-11 19:15 1.49 851 3830 (2002) 299 (2001) 1020 345 381 423 438 620 1150 1790 2270 3640
2020-07-11 18:15 1.49 851 3830 (2002) 299 (2001) 1020 345 381 423 438 620 1150 1790 2270 3640
2020-07-11 17:15 1.50 855 3830 (2002) 299 (2001) 1020 345 381 423 438 620 1150 1790 2270 3640
2020-07-11 16:15 1.51 858 3830 (2002) 299 (2001) 1020 345 381 423 438 620 1150 1790 2270 3640
2020-07-11 15:15 1.53 865 3830 (2002) 299 (2001) 1020 345 381 423 438 620 1150 1790 2270 3640
2020-07-11 14:15 1.54 868 3830 (2002) 299 (2001) 1020 345 381 423 438 620 1150 1790 2270 3640
2020-07-11 13:15 1.54 868 3830 (2002) 299 (2001) 1020 345 381 423 438 620 1150 1790 2270 3640
2020-07-11 12:15 1.57 879 3830 (2002) 299 (2001) 1020 345 381 423 438 620 1150 1790 2270 3640
2020-07-11 11:15 1.58 882 3830 (2002) 299 (2001) 1020 345 381 423 438 620 1150 1790 2270 3640
2020-07-11 10:15 1.61 892 3830 (2002) 299 (2001) 1020 345 381 423 438 620 1150 1790 2270 3640
2020-07-11 09:15 1.61 892 3830 (2002) 299 (2001) 1020 345 381 423 438 620 1150 1790 2270 3640
2020-07-11 08:15 1.64 903 3830 (2002) 299 (2001) 1020 345 381 423 438 620 1150 1790 2270 3640
2020-07-11 07:15 1.64 903 3830 (2002) 299 (2001) 1020 345 381 423 438 620 1150 1790 2270 3640
2020-07-11 06:15 1.65 906 3830 (2002) 299 (2001) 1020 345 381 423 438 620 1150 1790 2270 3640
2020-07-11 05:15 1.66 910 3830 (2002) 299 (2001) 1020 345 381 423 438 620 1150 1790 2270 3640
2020-07-11 04:15 1.67 913 3830 (2002) 299 (2001) 1020 345 381 423 438 620 1150 1790 2270 3640
2020-07-11 03:15 1.68 916 3830 (2002) 299 (2001) 1020 345 381 423 438 620 1150 1790 2270 3640
2020-07-11 02:15 1.69 920 3830 (2002) 299 (2001) 1020 345 381 423 438 620 1150 1790 2270 3640
2020-07-11 01:15 1.69 920 3830 (2002) 299 (2001) 1020 345 381 423 438 620 1150 1790 2270 3640
2020-07-11 00:15 1.68 916 3830 (2002) 299 (2001) 1020 345 381 423 438 620 1150 1790 2270 3640
2020-07-10 23:15 1.68 916 3880 (2002) 299 (2001) 1020 346 383 427 464 615 1160 1710 2300 3380
2020-07-10 22:15 1.70 923 3880 (2002) 299 (2001) 1020 346 383 427 464 615 1160 1710 2300 3380
2020-07-10 21:15 1.69 920 3880 (2002) 299 (2001) 1020 346 383 427 464 615 1160 1710 2300 3380
2020-07-10 20:15 1.69 920 3880 (2002) 299 (2001) 1020 346 383 427 464 615 1160 1710 2300 3380
2020-07-10 19:15 1.69 920 3880 (2002) 299 (2001) 1020 346 383 427 464 615 1160 1710 2300 3380
2020-07-10 18:15 1.71 927 3880 (2002) 299 (2001) 1020 346 383 427 464 615 1160 1710 2300 3380
2020-07-10 17:15 1.70 923 3880 (2002) 299 (2001) 1020 346 383 427 464 615 1160 1710 2300 3380
2020-07-10 16:15 1.72 930 3880 (2002) 299 (2001) 1020 346 383 427 464 615 1160 1710 2300 3380
2020-07-10 15:15 1.71 927 3880 (2002) 299 (2001) 1020 346 383 427 464 615 1160 1710 2300 3380
2020-07-10 14:15 1.73 934 3880 (2002) 299 (2001) 1020 346 383 427 464 615 1160 1710 2300 3380
2020-07-10 13:15 1.73 934 3880 (2002) 299 (2001) 1020 346 383 427 464 615 1160 1710 2300 3380
2020-07-10 12:15 1.72 930 3880 (2002) 299 (2001) 1020 346 383 427 464 615 1160 1710 2300 3380
2020-07-10 11:15 1.75 940 3880 (2002) 299 (2001) 1020 346 383 427 464 615 1160 1710 2300 3380
2020-07-10 10:15 1.74 937 3880 (2002) 299 (2001) 1020 346 383 427 464 615 1160 1710 2300 3380
2020-07-10 09:15 1.75 940 3880 (2002) 299 (2001) 1020 346 383 427 464 615 1160 1710 2300 3380
2020-07-10 08:15 1.76 944 3880 (2002) 299 (2001) 1020 346 383 427 464 615 1160 1710 2300 3380
2020-07-10 07:15 1.76 944 3880 (2002) 299 (2001) 1020 346 383 427 464 615 1160 1710 2300 3380
2020-07-10 06:15 1.77 947 3880 (2002) 299 (2001) 1020 346 383 427 464 615 1160 1710 2300 3380
2020-07-10 05:15 1.78 951 3880 (2002) 299 (2001) 1020 346 383 427 464 615 1160 1710 2300 3380
2020-07-10 04:15 1.78 951 3880 (2002) 299 (2001) 1020 346 383 427 464 615 1160 1710 2300 3380
2020-07-10 03:15 1.78 951 3880 (2002) 299 (2001) 1020 346 383 427 464 615 1160 1710 2300 3380
2020-07-10 02:15 1.79 954 3880 (2002) 299 (2001) 1020 346 383 427 464 615 1160 1710 2300 3380
2020-07-10 01:15 1.78 951 3880 (2002) 299 (2001) 1020 346 383 427 464 615 1160 1710 2300 3380
2020-07-10 00:15 1.79 954 3880 (2002) 299 (2001) 1020 346 383 427 464 615 1160 1710 2300 3380
2020-07-09 23:15 1.79 954 3860 (2002) 302 (2001) 1030 361 404 425 461 641 1160 1600 2440 3030
2020-07-09 22:15 1.79 954 3860 (2002) 302 (2001) 1030 361 404 425 461 641 1160 1600 2440 3030
2020-07-09 21:15 1.79 954 3860 (2002) 302 (2001) 1030 361 404 425 461 641 1160 1600 2440 3030
2020-07-09 20:15 1.79 954 3860 (2002) 302 (2001) 1030 361 404 425 461 641 1160 1600 2440 3030
2020-07-09 19:15 1.79 954 3860 (2002) 302 (2001) 1030 361 404 425 461 641 1160 1600 2440 3030
2020-07-09 18:15 1.78 951 3860 (2002) 302 (2001) 1030 361 404 425 461 641 1160 1600 2440 3030
2020-07-09 17:15 1.79 954 3860 (2002) 302 (2001) 1030 361 404 425 461 641 1160 1600 2440 3030
2020-07-09 16:15 1.78 951 3860 (2002) 302 (2001) 1030 361 404 425 461 641 1160 1600 2440 3030
2020-07-09 15:15 1.79 954 3860 (2002) 302 (2001) 1030 361 404 425 461 641 1160 1600 2440 3030
2020-07-09 14:15 1.80 958 3860 (2002) 302 (2001) 1030 361 404 425 461 641 1160 1600 2440 3030
2020-07-09 13:15 1.79 954 3860 (2002) 302 (2001) 1030 361 404 425 461 641 1160 1600 2440 3030
2020-07-09 12:15 1.81 961 3860 (2002) 302 (2001) 1030 361 404 425 461 641 1160 1600 2440 3030
2020-07-09 11:15 1.80 958 3860 (2002) 302 (2001) 1030 361 404 425 461 641 1160 1600 2440 3030
2020-07-09 10:15 1.80 958 3860 (2002) 302 (2001) 1030 361 404 425 461 641 1160 1600 2440 3030
2020-07-09 09:15 1.79 954 3860 (2002) 302 (2001) 1030 361 404 425 461 641 1160 1600 2440 3030
2020-07-09 08:15 1.80 958 3860 (2002) 302 (2001) 1030 361 404 425 461 641 1160 1600 2440 3030
2020-07-09 07:15 1.82 964 3860 (2002) 302 (2001) 1030 361 404 425 461 641 1160 1600 2440 3030
2020-07-09 06:15 1.80 958 3860 (2002) 302 (2001) 1030 361 404 425 461 641 1160 1600 2440 3030
2020-07-09 05:15 1.81 961 3860 (2002) 302 (2001) 1030 361 404 425 461 641 1160 1600 2440 3030
2020-07-09 04:15 1.80 958 3860 (2002) 302 (2001) 1030 361 404 425 461 641 1160 1600 2440 3030
2020-07-09 03:15 1.82 964 3860 (2002) 302 (2001) 1030 361 404 425 461 641 1160 1600 2440 3030
2020-07-09 02:15 1.81 961 3860 (2002) 302 (2001) 1030 361 404 425 461 641 1160 1600 2440 3030
2020-07-09 01:15 1.82 964 3860 (2002) 302 (2001) 1030 361 404 425 461 641 1160 1600 2440 3030
2020-07-09 00:15 1.81 961 3860 (2002) 302 (2001) 1030 361 404 425 461 641 1160 1600 2440 3030
2020-07-08 23:15 1.81 961 3880 (2002) 315 (2001) 997 351 391 429 435 666 1160 1410 2230 3010
2020-07-08 22:15 1.81 961 3880 (2002) 315 (2001) 997 351 391 429 435 666 1160 1410 2230 3010
2020-07-08 21:15 1.82 964 3880 (2002) 315 (2001) 997 351 391 429 435 666 1160 1410 2230 3010
2020-07-08 20:15 1.81 961 3880 (2002) 315 (2001) 997 351 391 429 435 666 1160 1410 2230 3010
2020-07-08 19:15 1.80 958 3880 (2002) 315 (2001) 997 351 391 429 435 666 1160 1410 2230 3010
2020-07-08 18:15 1.80 958 3880 (2002) 315 (2001) 997 351 391 429 435 666 1160 1410 2230 3010
2020-07-08 17:15 1.79 954 3880 (2002) 315 (2001) 997 351 391 429 435 666 1160 1410 2230 3010
2020-07-08 16:15 1.80 958 3880 (2002) 315 (2001) 997 351 391 429 435 666 1160 1410 2230 3010
2020-07-08 15:15 1.80 958 3880 (2002) 315 (2001) 997 351 391 429 435 666 1160 1410 2230 3010
2020-07-08 14:15 1.79 954 3880 (2002) 315 (2001) 997 351 391 429 435 666 1160 1410 2230 3010
2020-07-08 13:15 1.79 954 3880 (2002) 315 (2001) 997 351 391 429 435 666 1160 1410 2230 3010
2020-07-08 12:15 1.80 958 3880 (2002) 315 (2001) 997 351 391 429 435 666 1160 1410 2230 3010
2020-07-08 11:15 1.80 958 3880 (2002) 315 (2001) 997 351 391 429 435 666 1160 1410 2230 3010
2020-07-08 10:15 1.80 958 3880 (2002) 315 (2001) 997 351 391 429 435 666 1160 1410 2230 3010
2020-07-08 09:15 1.80 958 3880 (2002) 315 (2001) 997 351 391 429 435 666 1160 1410 2230 3010
2020-07-08 08:15 1.80 958 3880 (2002) 315 (2001) 997 351 391 429 435 666 1160 1410 2230 3010
2020-07-08 07:15 1.80 958 3880 (2002) 315 (2001) 997 351 391 429 435 666 1160 1410 2230 3010
2020-07-08 06:15 1.79 954 3880 (2002) 315 (2001) 997 351 391 429 435 666 1160 1410 2230 3010
2020-07-08 05:15 1.81 961 3880 (2002) 315 (2001) 997 351 391 429 435 666 1160 1410 2230 3010
2020-07-08 04:15 1.80 958 3880 (2002) 315 (2001) 997 351 391 429 435 666 1160 1410 2230 3010
2020-07-08 03:15 1.81 961 3880 (2002) 315 (2001) 997 351 391 429 435 666 1160 1410 2230 3010
2020-07-08 02:15 1.81 961 3880 (2002) 315 (2001) 997 351 391 429 435 666 1160 1410 2230 3010
2020-07-08 01:15 1.82 964 3880 (2002) 315 (2001) 997 351 391 429 435 666 1160 1410 2230 3010
2020-07-08 00:15 1.81 961 3880 (2002) 315 (2001) 997 351 391 429 435 666 1160 1410 2230 3010
2020-07-07 23:15 1.80 958 3910 (2002) 325 (2012) 984 356 393 429 443 652 1140 1300 2220 3030
2020-07-07 22:15 1.81 961 3910 (2002) 325 (2012) 984 356 393 429 443 652 1140 1300 2220 3030
2020-07-07 21:15 1.81 961 3910 (2002) 325 (2012) 984 356 393 429 443 652 1140 1300 2220 3030
2020-07-07 20:15 1.81 961 3910 (2002) 325 (2012) 984 356 393 429 443 652 1140 1300 2220 3030
2020-07-07 19:15 1.82 964 3910 (2002) 325 (2012) 984 356 393 429 443 652 1140 1300 2220 3030
2020-07-07 18:15 1.81 961 3910 (2002) 325 (2012) 984 356 393 429 443 652 1140 1300 2220 3030
2020-07-07 17:15 1.83 968 3910 (2002) 325 (2012) 984 356 393 429 443 652 1140 1300 2220 3030
2020-07-07 16:15 1.81 961 3910 (2002) 325 (2012) 984 356 393 429 443 652 1140 1300 2220 3030
2020-07-07 15:15 1.82 964 3910 (2002) 325 (2012) 984 356 393 429 443 652 1140 1300 2220 3030
2020-07-07 14:15 1.82 964 3910 (2002) 325 (2012) 984 356 393 429 443 652 1140 1300 2220 3030
2020-07-07 13:15 1.82 964 3910 (2002) 325 (2012) 984 356 393 429 443 652 1140 1300 2220 3030
2020-07-07 12:15 1.83 968 3910 (2002) 325 (2012) 984 356 393 429 443 652 1140 1300 2220 3030
2020-07-07 11:15 1.82 964 3910 (2002) 325 (2012) 984 356 393 429 443 652 1140 1300 2220 3030
2020-07-07 10:15 1.83 968 3910 (2002) 325 (2012) 984 356 393 429 443 652 1140 1300 2220 3030
2020-07-07 09:15 1.82 964 3910 (2002) 325 (2012) 984 356 393 429 443 652 1140 1300 2220 3030
2020-07-07 08:15 1.83 968 3910 (2002) 325 (2012) 984 356 393 429 443 652 1140 1300 2220 3030
2020-07-07 07:15 1.84 971 3910 (2002) 325 (2012) 984 356 393 429 443 652 1140 1300 2220 3030
2020-07-07 06:15 1.83 968 3910 (2002) 325 (2012) 984 356 393 429 443 652 1140 1300 2220 3030
2020-07-07 05:15 1.81 961 3910 (2002) 325 (2012) 984 356 393 429 443 652 1140 1300 2220 3030
2020-07-07 04:15 1.80 958 3910 (2002) 325 (2012) 984 356 393 429 443 652 1140 1300 2220 3030
2020-07-07 03:15 1.78 951 3910 (2002) 325 (2012) 984 356 393 429 443 652 1140 1300 2220 3030
2020-07-07 02:15 1.74 937 3910 (2002) 325 (2012) 984 356 393 429 443 652 1140 1300 2220 3030
2020-07-07 01:15 1.69 920 3910 (2002) 325 (2012) 984 356 393 429 443 652 1140 1300 2220 3030
2020-07-07 00:15 1.65 906 3910 (2002) 325 (2012) 984 356 393 429 443 652 1140 1300 2220 3030
2020-07-06 23:15 1.61 892 3920 (2002) 328 (2012) 975 362 391 428 453 697 1190 1290 2210 2990
2020-07-06 22:15 1.57 879 3920 (2002) 328 (2012) 975 362 391 428 453 697 1190 1290 2210 2990
2020-07-06 21:15 1.56 875 3920 (2002) 328 (2012) 975 362 391 428 453 697 1190 1290 2210 2990
2020-07-06 20:15 1.56 875 3920 (2002) 328 (2012) 975 362 391 428 453 697 1190 1290 2210 2990
2020-07-06 19:15 1.55 872 3920 (2002) 328 (2012) 975 362 391 428 453 697 1190 1290 2210 2990
2020-07-06 18:15 1.54 868 3920 (2002) 328 (2012) 975 362 391 428 453 697 1190 1290 2210 2990
2020-07-06 17:15 1.55 872 3920 (2002) 328 (2012) 975 362 391 428 453 697 1190 1290 2210 2990
2020-07-06 16:15 1.56 875 3920 (2002) 328 (2012) 975 362 391 428 453 697 1190 1290 2210 2990
2020-07-06 15:15 1.56 875 3920 (2002) 328 (2012) 975 362 391 428 453 697 1190 1290 2210 2990
2020-07-06 14:15 1.56 875 3920 (2002) 328 (2012) 975 362 391 428 453 697 1190 1290 2210 2990
2020-07-06 13:15 1.56 875 3920 (2002) 328 (2012) 975 362 391 428 453 697 1190 1290 2210 2990
2020-07-06 12:15 1.57 879 3920 (2002) 328 (2012) 975 362 391 428 453 697 1190 1290 2210 2990
2020-07-06 11:15 1.56 875 3920 (2002) 328 (2012) 975 362 391 428 453 697 1190 1290 2210 2990
2020-07-06 10:15 1.56 875 3920 (2002) 328 (2012) 975 362 391 428 453 697 1190 1290 2210 2990
2020-07-06 09:15 1.57 879 3920 (2002) 328 (2012) 975 362 391 428 453 697 1190 1290 2210 2990
2020-07-06 08:15 1.56 875 3920 (2002) 328 (2012) 975 362 391 428 453 697 1190 1290 2210 2990
2020-07-06 07:15 1.57 879 3920 (2002) 328 (2012) 975 362 391 428 453 697 1190 1290 2210 2990
2020-07-06 06:15 1.57 879 3920 (2002) 328 (2012) 975 362 391 428 453 697 1190 1290 2210 2990
2020-07-06 05:15 1.58 882 3920 (2002) 328 (2012) 975 362 391 428 453 697 1190 1290 2210 2990
2020-07-06 04:15 1.56 875 3920 (2002) 328 (2012) 975 362 391 428 453 697 1190 1290 2210 2990
2020-07-06 03:15 1.57 879 3920 (2002) 328 (2012) 975 362 391 428 453 697 1190 1290 2210 2990
2020-07-06 02:15 1.57 879 3920 (2002) 328 (2012) 975 362 391 428 453 697 1190 1290 2210 2990
2020-07-06 01:15 1.57 879 3920 (2002) 328 (2012) 975 362 391 428 453 697 1190 1290 2210 2990
2020-07-06 00:15 1.59 886 3920 (2002) 328 (2012) 975 362 391 428 453 697 1190 1290 2210 2990

A total of 188 rows are displayed for years 1949 through 2019.